Aurora, Nevada
Current Conditions -  °F | °C
As of 4:52 AM on Friday 19 Dec 2014 (Local Time) from KBAN Reporting Station
Few Clouds Few Clouds  
Wind Chill: 37°   Ceiling: Unl
Heat Index: 37°   Visibility: NA
Dew Point: 11°   Wind: 0mph
Humidity: 34%   Direction: NA
Pressure: 30.08"   Gusts: NA
Location:  38.7596°N, 119.34°W
Report Text: KBAN 191252Z AUTO 00000KT FEW050 03/M12 A3008 RMK AO2 SLP178 T00281117 $
Loading
Personal Weather Stations






























Interactive Weather Map New forecast layout! Learn more

10-Day Weather Forecast

Advertisements
Track Severe Weather on mobile